Airport View

Enter AWOS ICAO identifier for current METAR.

ex. KFNL

KPCD 250205Z AUTO 14005KT 10SM VCTS SCT041 BKN048 BKN055 21/18 A2992 RMK AO2 LTG DSNT ALQS T02110178

25 May 2020 02:08

Frequency: 118.95

Phone: 573-543-5390

Other Area AWOS: KSAR - KFAM - KMDH - KBLV

TAF KCGI 242320Z 2500/2524 19007KT P6SM VCTS FEW040CB SCT180 FM250300 VRB03KT P6SM FEW040 SCT180 FM251500 17007KT P6SM VCTS FEW040CB SCT200 FM251800 18009KT P6SM -SHRA VCTS SCT040CB BKN200